Time;durP1;ratioP1;P1;durP2;ratioP2;P2;SDS_P1;SDS_P2;PMS_P1;PMS_P2;Temp;Humidity;BMP_temperature;BMP_pressure;BME280_temperature;BME280_humidity;BME280_pressure;Samples;Min_cycle;Max_cycle;Signal;HPM_P1;HPM_P2
2023/06/07 00:00:26;;;;;;;8.40;3.97;;;;;;;-143.21;56.94;71885.78;5053344;28;20668;-80
2023/06/07 00:02:53;;;;;;;6.88;3.65;;;;;;;-143.21;57.33;71889.75;5054285;28;20198;-81
2023/06/07 00:05:21;;;;;;;9.27;3.90;;;;;;;-143.21;57.30;71889.75;5055184;28;20635;-82
2023/06/07 00:07:48;;;;;;;5.68;3.75;;;;;;;-143.21;57.40;71887.78;5057755;28;20202;-80
2023/06/07 00:10:16;;;;;;;8.13;4.00;;;;;;;-143.21;57.16;71875.88;5053224;28;20202;-80
2023/06/07 00:12:43;;;;;;;6.35;3.83;;;;;;;-143.21;57.06;71879.84;5057273;28;20202;-80
2023/06/07 00:15:11;;;;;;;5.07;3.80;;;;;;;-143.21;56.98;71875.88;5054375;28;20198;-79
2023/06/07 00:17:40;;;;;;;6.70;3.47;;;;;;;-143.21;57.32;71891.72;5053234;28;20202;-80
2023/06/07 00:20:08;;;;;;;6.38;3.60;;;;;;;-143.21;57.59;71891.72;5052950;28;20628;-79
2023/06/07 00:22:35;;;;;;;8.10;3.50;;;;;;;-143.21;57.40;71891.72;5058142;28;20194;-79
2023/06/07 00:25:02;;;;;;;7.82;3.75;;;;;;;-143.21;57.23;71881.81;5052401;28;20191;-79
2023/06/07 00:27:30;;;;;;;5.18;3.78;;;;;;;-143.21;57.45;71877.84;5053097;28;20205;-79
2023/06/07 00:29:57;;;;;;;9.07;3.45;;;;;;;-143.21;57.32;71883.81;5053147;28;20202;-78
2023/06/07 00:32:24;;;;;;;6.93;3.53;;;;;;;-143.21;57.50;71891.72;5052485;28;20229;-79
2023/06/07 00:34:51;;;;;;;6.53;3.45;;;;;;;-143.21;57.60;71889.75;5054876;28;20198;-79
2023/06/07 00:37:18;;;;;;;6.43;3.75;;;;;;;-143.21;57.66;71899.66;5061851;28;20208;-79
2023/06/07 00:39:44;;;;;;;8.63;3.72;;;;;;;-143.21;57.71;71899.66;5041696;28;20202;-79
2023/06/07 00:42:12;;;;;;;4.72;3.15;;;;;;;-143.21;57.86;71905.63;5052851;28;20743;-79
2023/06/07 00:44:40;;;;;;;7.35;3.78;;;;;;;-143.21;57.62;71899.66;5052858;28;20233;-79
2023/06/07 00:47:07;;;;;;;4.93;3.42;;;;;;;-143.21;57.80;71909.56;5054188;28;20202;-79
2023/06/07 00:49:37;;;;;;;5.13;3.38;;;;;;;-143.21;57.79;71919.50;5053276;28;20233;-79
2023/06/07 00:52:04;;;;;;;5.50;3.40;;;;;;;-143.21;57.76;71917.50;5058768;28;20643;-79
2023/06/07 00:54:34;;;;;;;5.85;3.20;;;;;;;-143.21;57.61;71917.50;5062353;28;20272;-79
2023/06/07 00:57:01;;;;;;;6.80;3.42;;;;;;;-143.21;57.41;71921.47;5060735;28;20201;-79
2023/06/07 00:59:28;;;;;;;6.72;3.50;;;;;;;-143.21;56.54;71911.56;5052683;28;20590;-79
2023/06/07 01:01:57;;;;;;;5.60;3.47;;;;;;;-143.21;56.73;71915.53;5058341;28;20280;-79
2023/06/07 01:04:24;;;;;;;7.40;2.75;;;;;;;-143.21;56.47;71911.56;5053809;28;20186;-79
2023/06/07 01:06:52;;;;;;;9.18;3.50;;;;;;;-143.21;56.44;71915.53;5056257;28;20718;-79
2023/06/07 01:09:20;;;;;;;3.85;3.13;;;;;;;-143.21;56.21;71909.56;5052351;28;20233;-79
2023/06/07 01:11:51;;;;;;;5.97;3.65;;;;;;;-143.21;55.90;71907.59;5052283;28;20699;-79
2023/06/07 01:14:19;;;;;;;5.57;3.22;;;;;;;-143.21;56.12;71909.56;5054119;28;20197;-79
2023/06/07 01:16:50;;;;;;;4.78;3.22;;;;;;;-143.21;56.07;71911.56;5051945;28;20675;-79
2023/06/07 01:19:21;;;;;;;7.15;2.97;;;;;;;-143.21;55.71;71911.56;5050900;28;20202;-79
2023/06/07 01:21:51;;;;;;;9.02;3.08;;;;;;;-143.21;55.51;71903.63;5050323;28;20279;-79
2023/06/07 01:24:20;;;;;;;6.15;3.38;;;;;;;-143.21;55.52;71913.53;5048805;28;20273;-78
2023/06/07 01:26:52;;;;;;;9.05;3.50;;;;;;;-143.21;55.98;71913.53;5057811;28;20224;-78
2023/06/07 01:29:21;;;;;;;5.75;3.28;;;;;;;-143.21;56.06;71913.53;5056130;28;20194;-79
2023/06/07 01:31:49;;;;;;;5.47;2.92;;;;;;;-143.21;56.29;71923.47;5052002;28;20229;-78
2023/06/07 01:34:17;;;;;;;7.00;3.65;;;;;;;-143.21;56.60;71933.38;5053011;28;20252;-79
2023/06/07 01:36:44;;;;;;;6.85;3.70;;;;;;;-143.21;56.63;71939.31;5051972;28;20200;-79
2023/06/07 01:39:13;;;;;;;7.50;3.60;;;;;;;-143.21;56.61;71951.22;5051967;28;20212;-79
2023/06/07 01:41:43;;;;;;;6.88;3.67;;;;;;;-143.21;57.02;71949.25;5056134;28;20686;-79
2023/06/07 01:44:11;;;;;;;5.97;3.50;;;;;;;-143.21;56.86;71951.22;5060431;28;20194;-79
2023/06/07 01:46:39;;;;;;;11.15;3.70;;;;;;;-143.21;56.99;71955.19;5055546;28;20201;-78
2023/06/07 01:49:07;;;;;;;4.78;3.58;;;;;;;-143.21;56.92;71971.06;5060955;28;20209;-78
2023/06/07 01:51:33;;;;;;;7.45;3.88;;;;;;;-143.21;56.69;71963.13;5051487;28;20225;-79
2023/06/07 01:54:01;;;;;;;5.88;3.75;;;;;;;-143.21;56.83;71969.06;5052130;28;20194;-79
2023/06/07 01:56:35;;;;;;;6.68;3.65;;;;;;;-143.21;56.79;71986.91;5052666;28;20209;-78
2023/06/07 01:59:15;;;;;;;8.17;3.57;;;;;;;-143.21;57.26;71986.91;5051983;28;20201;-78
2023/06/07 02:01:50;;;;;;;6.47;3.38;;;;;;;-143.21;56.94;71986.91;5051923;28;20178;-78
2023/06/07 02:04:21;;;;;;;5.97;3.55;;;;;;;-143.21;56.71;71982.94;5052647;28;20209;-79
2023/06/07 02:06:52;;;;;;;6.03;3.77;;;;;;;-143.21;56.61;71984.94;5051791;28;20204;-79
2023/06/07 02:09:21;;;;;;;9.03;3.87;;;;;;;-143.21;56.56;71982.94;5042088;28;20194;-79
2023/06/07 02:11:50;;;;;;;5.32;2.97;;;;;;;-143.21;56.76;71988.91;5048872;28;20868;-79
2023/06/07 02:14:20;;;;;;;7.10;3.70;;;;;;;-143.21;56.30;71984.94;5052291;28;20202;-79
2023/06/07 02:16:48;;;;;;;3.87;3.17;;;;;;;-143.21;56.21;71990.88;5052201;28;20228;-80
2023/06/07 02:19:16;;;;;;;7.13;3.50;;;;;;;-143.21;56.08;71992.88;5067656;28;20281;-80
2023/06/07 02:21:43;;;;;;;4.75;3.33;;;;;;;-143.21;56.12;71992.88;5053493;28;20638;-80
2023/06/07 02:24:10;;;;;;;4.95;3.60;;;;;;;-143.21;56.08;71994.84;5053731;28;20217;-80
2023/06/07 02:26:38;;;;;;;6.38;3.50;;;;;;;-143.21;56.02;72004.75;5051354;28;20210;-81
2023/06/07 02:29:04;;;;;;;6.10;3.47;;;;;;;-143.21;56.10;71996.81;5051577;28;20205;-80
2023/06/07 02:31:32;;;;;;;6.22;3.40;;;;;;;-143.21;55.97;71998.81;5050945;28;20667;-80
2023/06/07 02:33:59;;;;;;;5.82;3.42;;;;;;;-143.21;56.01;71998.81;5043612;28;20249;-80
2023/06/07 02:36:32;;;;;;;6.47;3.23;;;;;;;-143.21;56.14;71996.81;5050375;28;20202;-80
2023/06/07 02:38:59;;;;;;;8.23;3.45;;;;;;;-143.21;56.14;72000.78;5050931;28;20614;-80
2023/06/07 02:41:26;;;;;;;9.63;3.65;;;;;;;-143.21;55.84;71992.88;5051335;28;20212;-80
2023/06/07 02:43:52;;;;;;;6.05;3.42;;;;;;;-143.21;55.96;71998.81;5051985;28;20205;-80
2023/06/07 02:46:19;;;;;;;4.70;3.30;;;;;;;-143.21;55.65;71994.84;5051396;28;20202;-81
2023/06/07 02:48:47;;;;;;;8.10;3.60;;;;;;;-143.21;55.74;71998.81;5051164;28;20197;-80
2023/06/07 02:51:14;;;;;;;4.35;3.00;;;;;;;-143.21;56.00;72022.59;5051166;28;20536;-81
2023/06/07 02:53:41;;;;;;;4.97;3.17;;;;;;;-143.21;55.91;72014.69;5065176;28;20197;-80
2023/06/07 02:56:09;;;;;;;5.73;3.53;;;;;;;-143.21;55.93;72018.63;5041622;28;20579;-80
2023/06/07 02:58:36;;;;;;;7.15;3.53;;;;;;;-143.21;56.08;72018.63;5051293;28;20664;-80
2023/06/07 03:01:07;;;;;;;6.47;3.33;;;;;;;-143.21;56.47;72016.66;5051157;28;20680;-79
2023/06/07 03:03:34;;;;;;;6.60;3.47;;;;;;;-143.21;56.20;72012.69;5064192;28;20197;-80
2023/06/07 03:06:04;;;;;;;10.93;4.00;;;;;;;-143.21;56.40;72012.69;5050019;28;20284;-79
2023/06/07 03:08:31;;;;;;;5.47;3.63;;;;;;;-143.21;56.46;72016.66;5053691;28;20207;-81
2023/06/07 03:10:58;;;;;;;6.33;3.70;;;;;;;-143.21;56.35;72016.66;5050908;28;20206;-79
2023/06/07 03:13:25;;;;;;;6.40;3.10;;;;;;;-143.21;56.45;72022.59;5050904;28;20221;-78
2023/06/07 03:15:52;;;;;;;8.50;3.88;;;;;;;-143.21;56.47;72018.63;5050434;28;20213;-79
2023/06/07 03:18:19;;;;;;;5.40;3.38;;;;;;;-143.21;56.08;72014.69;5051889;28;20201;-80
2023/06/07 03:20:47;;;;;;;6.40;3.40;;;;;;;-143.21;56.21;72024.59;5052159;28;20564;-80
2023/06/07 03:23:15;;;;;;;11.03;3.40;;;;;;;-143.21;56.16;72016.66;5043234;28;20209;-80
2023/06/07 03:25:42;;;;;;;5.53;3.40;;;;;;;-143.21;56.40;72012.69;5053814;28;20209;-79
2023/06/07 03:28:09;;;;;;;7.88;3.47;;;;;;;-143.21;56.45;72016.66;5064422;28;20563;-79
2023/06/07 03:30:36;;;;;;;4.82;3.40;;;;;;;-143.21;56.31;72014.69;5071567;28;20239;-82
2023/06/07 03:33:02;;;;;;;8.55;3.30;;;;;;;-143.21;56.63;72006.75;5059359;28;20340;-81
2023/06/07 03:35:30;;;;;;;9.17;3.87;;;;;;;-143.21;56.49;72008.72;5053987;28;20209;-81
2023/06/07 03:37:57;;;;;;;7.50;3.45;;;;;;;-143.21;56.42;72008.72;5056463;28;20256;-80
2023/06/07 03:40:25;;;;;;;5.90;3.50;;;;;;;-143.21;56.09;72000.78;5054490;28;20260;-81
2023/06/07 03:42:52;;;;;;;5.40;3.70;;;;;;;-143.21;56.12;71992.88;5061169;28;20204;-81
2023/06/07 03:45:19;;;;;;;7.03;3.17;;;;;;;-143.21;56.11;71998.81;5064976;28;20566;-80
2023/06/07 03:47:46;;;;;;;7.90;3.77;;;;;;;-143.21;56.33;72002.78;5053869;28;20198;-80
2023/06/07 03:50:13;;;;;;;8.87;3.73;;;;;;;-143.21;55.95;71994.84;5052975;28;20206;-80
2023/06/07 03:52:47;;;;;;;7.50;3.80;;;;;;;-143.21;56.23;72000.78;5061621;28;20726;-80
2023/06/07 03:55:14;;;;;;;5.38;3.30;;;;;;;-143.21;56.43;71998.81;5055691;28;20205;-80
2023/06/07 03:57:42;;;;;;;9.55;3.90;;;;;;;-143.21;56.35;71992.88;5058488;28;20632;-81
2023/06/07 04:00:11;;;;;;;10.43;3.50;;;;;;;-143.21;56.79;71992.88;5065786;28;20212;-80
2023/06/07 04:02:37;;;;;;;7.13;3.53;;;;;;;-143.21;56.52;71984.94;5053680;28;20182;-81
2023/06/07 04:05:05;;;;;;;4.57;3.40;;;;;;;-143.21;56.61;71988.91;5054563;28;20208;-81
2023/06/07 04:07:32;;;;;;;12.60;4.30;;;;;;;-143.21;56.42;71986.91;5053421;28;20209;-81
2023/06/07 04:09:58;;;;;;;7.18;3.70;;;;;;;-143.21;56.34;71990.88;5053580;28;20217;-81
2023/06/07 04:12:25;;;;;;;8.68;4.05;;;;;;;-143.21;56.86;71992.88;5055221;28;20226;-80
2023/06/07 04:14:53;;;;;;;10.02;3.88;;;;;;;-143.21;56.61;71980.97;5060560;28;20201;-79
2023/06/07 04:17:20;;;;;;;15.43;3.88;;;;;;;-143.21;56.77;71977.00;5053562;28;20194;-79
2023/06/07 04:19:48;;;;;;;7.57;3.92;;;;;;;-143.21;56.94;71969.06;5052971;28;20194;-79
2023/06/07 04:22:15;;;;;;;6.38;3.92;;;;;;;-143.21;56.66;71965.09;5058916;28;20209;-79
2023/06/07 04:24:41;;;;;;;7.03;3.97;;;;;;;-143.21;56.82;71978.97;5046578;28;20316;-79
2023/06/07 04:27:11;;;;;;;13.43;4.10;;;;;;;-143.21;57.18;71978.97;5053374;28;20206;-80
2023/06/07 04:29:40;;;;;;;7.10;3.97;;;;;;;-143.21;57.10;71977.00;5052806;28;20190;-80
2023/06/07 04:32:09;;;;;;;15.73;4.18;;;;;;;-143.21;57.26;71963.13;5052158;28;20780;-80
2023/06/07 04:34:41;;;;;;;7.20;3.67;;;;;;;-143.21;56.94;71951.22;5057851;28;20202;-80
2023/06/07 04:37:12;;;;;;;11.05;3.72;;;;;;;-143.21;57.11;71945.28;5052878;28;20679;-81
2023/06/07 04:39:40;;;;;;;11.13;4.10;;;;;;;-143.21;57.36;71951.22;5055070;28;20266;-82
2023/06/07 04:42:16;;;;;;;6.10;3.80;;;;;;;-143.21;57.35;71943.28;5053303;28;20216;-81
2023/06/07 04:44:44;;;;;;;9.18;3.92;;;;;;;-143.21;57.41;71947.25;5054214;28;20235;-81
2023/06/07 04:47:13;;;;;;;11.13;4.40;;;;;;;-143.21;57.36;71943.28;5033217;28;20199;-80
2023/06/07 04:49:40;;;;;;;12.23;4.25;;;;;;;-143.21;57.72;71937.34;5051051;28;20656;-80
2023/06/07 04:52:08;;;;;;;12.48;4.15;;;;;;;-143.21;58.13;71935.34;5032568;28;20701;-80
2023/06/07 04:54:36;;;;;;;6.25;4.15;;;;;;;-143.21;57.97;71933.38;5050537;28;20198;-80
2023/06/07 04:57:03;;;;;;;9.18;4.30;;;;;;;-143.21;57.98;71923.47;5052615;28;20654;-80
2023/06/07 04:59:34;;;;;;;9.05;4.40;;;;;;;-143.21;57.32;71925.44;5069615;28;20239;-80
2023/06/07 05:02:01;;;;;;;10.60;4.20;;;;;;;-143.21;57.50;71927.44;5069731;28;20177;-80
2023/06/07 05:04:30;;;;;;;9.60;4.05;;;;;;;-143.21;57.33;71925.44;5050629;28;20260;-83
2023/06/07 05:06:58;;;;;;;6.70;3.75;;;;;;;-143.21;57.43;71919.50;5054889;28;20236;-79
2023/06/07 05:09:25;;;;;;;9.18;4.47;;;;;;;-143.21;57.27;71919.50;5066697;28;20584;-79
2023/06/07 05:11:52;;;;;;;7.53;4.18;;;;;;;-143.21;57.27;71915.53;5071724;28;20189;-79
2023/06/07 05:14:19;;;;;;;5.85;3.58;;;;;;;-143.21;57.39;71901.66;5054285;28;20202;-79
2023/06/07 05:16:45;;;;;;;12.27;4.38;;;;;;;-143.21;57.21;71899.66;5052142;28;20344;-79
2023/06/07 05:19:13;;;;;;;9.52;4.00;;;;;;;-143.21;56.64;71895.69;5052604;28;20194;-79
2023/06/07 05:21:41;;;;;;;7.78;4.18;;;;;;;-143.21;56.86;71897.69;5052291;28;20293;-79
2023/06/07 05:24:08;;;;;;;10.00;4.32;;;;;;;-143.21;57.51;71879.84;5057466;28;20576;-79
2023/06/07 05:26:35;;;;;;;9.32;4.32;;;;;;;-143.21;57.01;71883.81;5051953;28;20201;-80
2023/06/07 05:29:02;;;;;;;12.50;4.25;;;;;;;-143.21;57.03;71883.81;5059503;28;20268;-80
2023/06/07 05:31:30;;;;;;;7.30;3.67;;;;;;;-143.21;57.31;71893.72;5050491;28;20232;-80
2023/06/07 05:33:57;;;;;;;11.98;4.28;;;;;;;-143.21;56.96;71879.84;5051219;28;20233;-80
2023/06/07 05:36:24;;;;;;;7.03;4.40;;;;;;;-143.21;56.82;71881.81;5051314;28;20202;-79
2023/06/07 05:38:54;;;;;;;7.40;4.10;;;;;;;-143.21;56.59;71871.91;5050944;28;20664;-79
2023/06/07 05:41:21;;;;;;;11.20;4.45;;;;;;;-143.21;57.13;71865.97;5051321;28;20201;-78
2023/06/07 05:43:48;;;;;;;7.68;4.10;;;;;;;-143.21;57.16;71862.00;5055080;28;20229;-78
2023/06/07 05:46:18;;;;;;;7.28;3.78;;;;;;;-143.21;56.92;71854.06;5051996;28;20201;-78
2023/06/07 05:48:44;;;;;;;9.48;3.75;;;;;;;-143.21;56.60;71842.16;5052197;28;20220;-78
2023/06/07 05:51:12;;;;;;;16.10;4.40;;;;;;;-143.21;56.42;71832.25;5051636;28;20213;-78
2023/06/07 05:53:39;;;;;;;7.07;4.00;;;;;;;-143.21;56.19;71822.34;5062545;28;20222;-79
2023/06/07 05:56:09;;;;;;;8.68;4.05;;;;;;;-143.21;56.11;71810.44;5051184;28;20688;-80
2023/06/07 05:58:37;;;;;;;12.18;4.25;;;;;;;-143.21;56.31;71800.53;5052519;28;20265;-80
2023/06/07 06:01:05;;;;;;;11.85;4.07;;;;;;;-143.21;56.19;71812.41;5051754;28;20775;-81
2023/06/07 06:03:32;;;;;;;7.95;3.95;;;;;;;-143.21;55.90;71796.56;5055557;28;20592;-80
2023/06/07 06:05:58;;;;;;;13.15;4.32;;;;;;;-143.21;55.51;71816.38;5050846;28;20645;-80
2023/06/07 06:08:25;;;;;;;8.38;4.20;;;;;;;-143.21;55.92;71812.41;5051298;28;20202;-80
2023/06/07 06:10:52;;;;;;;14.80;4.30;;;;;;;-143.21;56.24;71806.47;5050657;28;20202;-80
2023/06/07 06:13:20;;;;;;;11.82;4.03;;;;;;;-143.21;56.12;71804.47;5051120;28;20218;-79
2023/06/07 06:15:47;;;;;;;8.77;4.10;;;;;;;-143.21;55.74;71798.53;5050702;28;20205;-80
2023/06/07 06:18:14;;;;;;;7.20;3.88;;;;;;;-143.21;56.28;71788.63;5050270;28;20210;-79
2023/06/07 06:20:41;;;;;;;7.18;3.95;;;;;;;-143.21;56.95;71794.56;5051788;28;20210;-80
2023/06/07 06:23:08;;;;;;;13.15;4.18;;;;;;;-143.21;56.39;71774.75;5050037;28;20194;-79
2023/06/07 06:25:36;;;;;;;8.55;3.83;;;;;;;-143.21;55.84;71766.81;5050226;28;20576;-80
2023/06/07 06:28:03;;;;;;;9.45;3.90;;;;;;;-143.21;55.83;71764.81;5050471;28;20285;-79
2023/06/07 06:30:31;;;;;;;9.32;4.03;;;;;;;-143.21;55.32;71760.88;5050359;28;20209;-80
2023/06/07 06:32:59;;;;;;;7.82;4.05;;;;;;;-143.21;55.38;71748.97;5051137;28;20222;-79
2023/06/07 06:35:27;;;;;;;6.97;3.47;;;;;;;-143.21;54.96;71743.00;5050490;28;20230;-79
2023/06/07 06:37:54;;;;;;;8.52;3.85;;;;;;;-143.21;54.73;71733.09;5051194;28;20197;-80
2023/06/07 06:40:22;;;;;;;11.88;4.38;;;;;;;-143.21;54.80;71727.16;5051122;28;20285;-79
2023/06/07 06:42:48;;;;;;;5.82;4.00;;;;;;;-143.21;55.25;71727.16;5051118;28;20201;-79
2023/06/07 06:45:15;;;;;;;6.70;4.20;;;;;;;-143.21;55.09;71723.19;5052549;28;20198;-79
2023/06/07 06:47:43;;;;;;;6.22;3.95;;;;;;;-143.21;54.95;71717.25;5051094;28;20251;-79
2023/06/07 06:50:12;;;;;;;7.57;4.20;;;;;;;-143.21;54.95;71709.31;5051107;28;20198;-80
2023/06/07 06:52:39;;;;;;;8.25;4.50;;;;;;;-143.21;54.84;71727.16;5050530;28;20221;-79
2023/06/07 06:55:06;;;;;;;9.13;4.70;;;;;;;-143.21;54.97;71715.25;5054239;28;20631;-79
2023/06/07 06:57:33;;;;;;;15.00;4.78;;;;;;;-143.21;54.88;71707.31;5052864;28;20277;-79
2023/06/07 07:00:00;;;;;;;9.45;4.97;;;;;;;-143.21;55.07;71701.38;5053815;28;20205;-80
2023/06/07 07:02:28;;;;;;;9.90;4.55;;;;;;;-143.21;54.93;71693.44;5053843;28;20679;-80
2023/06/07 07:04:57;;;;;;;8.32;4.90;;;;;;;-143.21;56.08;71683.53;5055017;28;20190;-80
2023/06/07 07:07:26;;;;;;;8.10;4.80;;;;;;;-143.21;56.28;71665.69;5054671;28;20566;-79
2023/06/07 07:09:56;;;;;;;13.65;4.45;;;;;;;-143.21;55.52;71649.81;5054745;28;20221;-79
2023/06/07 07:12:24;;;;;;;11.10;4.22;;;;;;;-143.21;55.73;71635.94;5053582;28;20197;-79
2023/06/07 07:14:51;;;;;;;9.18;3.70;;;;;;;-143.21;56.38;71624.06;5054582;28;20233;-80
2023/06/07 07:17:18;;;;;;;7.97;4.10;;;;;;;-143.21;54.82;71622.06;5053907;28;20201;-81
2023/06/07 07:19:45;;;;;;;9.30;3.67;;;;;;;-143.21;54.87;71612.16;5059124;28;20198;-80
2023/06/07 07:22:13;;;;;;;7.60;4.25;;;;;;;-143.21;54.45;71600.25;5055196;28;20661;-80
2023/06/07 07:24:40;;;;;;;13.38;4.40;;;;;;;-143.21;54.69;71598.28;5051330;28;20182;-80
2023/06/07 07:27:07;;;;;;;8.65;4.03;;;;;;;-143.21;55.81;71588.38;5053450;28;20214;-79
2023/06/07 07:29:34;;;;;;;7.22;3.95;;;;;;;-143.21;55.48;71582.41;5053584;28;20634;-81
2023/06/07 07:32:01;;;;;;;7.20;4.30;;;;;;;-143.21;54.72;71564.56;5054490;28;20229;-81
2023/06/07 07:34:28;;;;;;;9.80;5.13;;;;;;;-143.21;55.45;71548.72;5055469;28;20224;-80
2023/06/07 07:36:57;;;;;;;6.93;3.67;;;;;;;-143.21;53.51;71534.81;5053818;28;20202;-79
2023/06/07 07:39:26;;;;;;;9.73;3.97;;;;;;;-143.21;53.20;71538.78;5054211;28;20268;-79
2023/06/07 07:41:53;;;;;;;8.05;3.72;;;;;;;-143.21;55.62;71530.88;5054112;28;20206;-80
2023/06/07 07:44:20;;;;;;;8.77;4.07;;;;;;;-143.21;53.68;71530.88;5051518;28;20200;-80
2023/06/07 07:46:47;;;;;;;6.65;3.88;;;;;;;-143.21;54.93;71513.03;5053368;28;20213;-78
2023/06/07 07:49:14;;;;;;;10.68;4.00;;;;;;;-143.21;53.69;71511.03;5053983;28;20673;-80
2023/06/07 07:51:40;;;;;;;8.43;3.90;;;;;;;-143.21;52.61;71497.16;5051438;28;20209;-78
2023/06/07 07:54:08;;;;;;;9.30;4.00;;;;;;;-143.21;54.41;71491.22;5042851;28;20221;-78
2023/06/07 07:56:36;;;;;;;15.23;6.22;;;;;;;-143.21;54.28;71479.31;5052853;28;20248;-80
2023/06/07 07:59:03;;;;;;;9.25;4.32;;;;;;;-143.21;53.52;71473.38;5053501;28;20232;-80
2023/06/07 08:01:29;;;;;;;11.18;4.50;;;;;;;-143.21;52.94;71477.34;5054388;28;20241;-86
2023/06/07 08:03:59;;;;;;;16.73;5.40;;;;;;;-143.21;53.37;71467.41;5054783;28;20197;-80
2023/06/07 08:06:26;;;;;;;7.93;4.53;;;;;;;-143.21;54.54;71467.41;5073142;28;20190;-79
2023/06/07 08:08:53;;;;;;;7.82;4.40;;;;;;;-143.21;53.05;71455.53;5073739;28;20266;-82
2023/06/07 08:11:20;;;;;;;8.45;4.68;;;;;;;-143.21;52.83;71443.63;5073466;28;20688;-81
2023/06/07 08:13:49;;;;;;;19.52;4.97;;;;;;;-143.21;52.49;71443.63;5069657;28;20599;-81
2023/06/07 08:16:16;;;;;;;5.93;3.97;;;;;;;-143.21;52.12;71441.63;5033615;28;20669;-80
2023/06/07 08:18:44;;;;;;;9.77;4.65;;;;;;;-143.21;51.68;71439.66;5039550;28;20260;-80
2023/06/07 08:21:11;;;;;;;9.93;4.47;;;;;;;-143.21;51.40;71435.69;5072705;28;20198;-81
2023/06/07 08:23:38;;;;;;;13.77;4.72;;;;;;;-143.21;51.44;71431.72;5070902;28;20193;-81
2023/06/07 08:26:05;;;;;;;14.48;4.80;;;;;;;-143.21;51.64;71427.75;5053559;28;20202;-83
2023/06/07 08:28:32;;;;;;;11.60;5.18;;;;;;;-143.21;51.86;71425.78;5053339;28;20744;-82
2023/06/07 08:31:01;;;;;;;8.27;4.65;;;;;;;-143.21;50.98;71427.75;5053640;28;20561;-81
2023/06/07 08:33:28;;;;;;;10.00;4.78;;;;;;;-143.21;51.41;71435.69;5054117;28;20209;-82
2023/06/07 08:35:55;;;;;;;7.43;4.25;;;;;;;-143.21;51.15;71431.72;5053874;28;20189;-82
2023/06/07 08:38:22;;;;;;;12.77;4.43;;;;;;;-143.21;51.52;71423.78;5053343;28;20201;-81
2023/06/07 08:40:48;;;;;;;10.57;4.05;;;;;;;-143.21;51.76;71421.81;5053456;28;20201;-81
2023/06/07 08:43:15;;;;;;;13.75;4.28;;;;;;;-143.21;52.32;71407.94;5053948;28;20202;-82
2023/06/07 08:45:42;;;;;;;9.18;4.57;;;;;;;-143.21;51.70;71400.00;5053610;28;20202;-82
2023/06/07 08:48:13;;;;;;;11.20;4.35;;;;;;;-143.21;50.96;71390.09;5053020;28;20260;-83
2023/06/07 08:50:52;;;;;;;7.65;3.90;;;;;;;-143.21;50.57;71376.22;5053149;28;20175;-83
2023/06/07 08:53:24;;;;;;;8.77;4.07;;;;;;;-143.21;50.58;71368.28;5066176;28;20221;-79
2023/06/07 08:55:52;;;;;;;10.93;4.72;;;;;;;-143.21;50.97;71358.38;5066426;28;20194;-83
2023/06/07 08:58:20;;;;;;;8.65;4.90;;;;;;;-143.21;51.16;71344.50;5072099;28;20301;-84
2023/06/07 09:00:53;;;;;;;11.85;4.53;;;;;;;-143.21;49.86;71338.53;5059166;28;20277;-83
2023/06/07 09:03:32;;;;;;;10.60;4.78;;;;;;;-143.21;50.13;71328.63;5053654;28;20707;-82
2023/06/07 09:05:59;;;;;;;9.43;4.28;;;;;;;-143.21;50.00;71306.81;5052344;28;20188;-82
2023/06/07 09:08:27;;;;;;;8.70;5.13;;;;;;;-143.21;50.01;71294.94;5052942;28;20195;-82
2023/06/07 09:10:55;;;;;;;32.25;4.97;;;;;;;-143.21;50.01;71285.03;5054224;28;20288;-82
2023/06/07 09:13:21;;;;;;;10.00;4.30;;;;;;;-143.21;50.42;71285.03;5063065;28;20297;-81
2023/06/07 09:15:50;;;;;;;7.78;4.40;;;;;;;-143.21;49.64;71275.09;5052179;28;20202;-82
2023/06/07 09:18:16;;;;;;;10.18;4.47;;;;;;;-143.21;50.44;71279.06;5051621;28;20296;-81
2023/06/07 09:20:45;;;;;;;12.95;4.18;;;;;;;-143.21;50.08;71265.19;5055126;28;20202;-82
2023/06/07 09:23:14;;;;;;;11.18;4.00;;;;;;;-143.21;49.95;71271.13;5064897;28;20820;-81
2023/06/07 09:25:44;;;;;;;6.63;4.30;;;;;;;-143.21;49.21;71257.25;5050464;28;20202;-80
2023/06/07 09:28:13;;;;;;;7.35;4.20;;;;;;;-143.21;49.40;71249.34;5051346;28;20287;-81
2023/06/07 09:30:54;;;;;;;14.57;4.18;;;;;;;-143.21;49.66;71241.41;5064164;28;20212;-81
2023/06/07 09:33:29;;;;;;;7.80;4.30;;;;;;;-143.21;49.67;71225.53;5070649;28;20203;-80
2023/06/07 09:36:09;;;;;;;11.75;4.10;;;;;;;-143.21;50.26;71207.69;5051172;28;20196;-81
2023/06/07 09:38:36;;;;;;;5.78;4.07;;;;;;;-143.21;49.41;71195.81;5050780;28;20252;-79
2023/06/07 09:41:04;;;;;;;9.27;4.18;;;;;;;-143.21;48.58;71181.94;5064314;28;20224;-80
2023/06/07 09:43:42;;;;;;;7.50;4.00;;;;;;;-143.21;48.18;71162.09;5052649;28;20218;-83
2023/06/07 09:46:10;;;;;;;7.30;3.97;;;;;;;-143.21;47.74;71158.13;5036919;28;20236;-83
2023/06/07 09:48:47;;;;;;;6.85;4.00;;;;;;;-143.21;48.05;71158.13;5051547;28;20190;-82
2023/06/07 09:51:16;;;;;;;6.82;4.50;;;;;;;-143.21;48.13;71175.97;5062858;28;20664;-83
2023/06/07 09:54:00;;;;;;;21.58;8.82;;;;;;;-143.21;48.02;71168.06;5064412;28;20254;-81
2023/06/07 09:56:28;;;;;;;11.35;5.03;;;;;;;-143.21;47.69;71154.16;5050516;28;20677;-82
2023/06/07 09:59:06;;;;;;;30.95;12.18;;;;;;;-143.21;47.68;71146.25;5051377;28;20568;-81
2023/06/07 10:01:37;;;;;;;199.68;81.05;;;;;;;-143.21;47.46;71142.28;5037262;28;20205;-80
2023/06/07 10:04:05;;;;;;;20.77;9.98;;;;;;;-143.21;46.25;71146.25;5057051;28;20190;-81
2023/06/07 10:06:34;;;;;;;17.73;7.75;;;;;;;-143.21;48.10;71144.25;5052815;28;20232;-79
2023/06/07 10:09:03;;;;;;;16.75;7.43;;;;;;;-143.21;47.32;71130.38;5050762;28;20194;-79
2023/06/07 10:11:32;;;;;;;46.58;22.40;;;;;;;-143.21;48.01;71120.47;5047532;28;20204;-79
2023/06/07 10:14:05;;;;;;;29.90;11.18;;;;;;;-143.21;46.92;71134.34;5050048;28;20338;-78
2023/06/07 10:16:35;;;;;;;58.08;23.52;;;;;;;-143.21;47.61;71150.22;5051886;28;20597;-79
2023/06/07 10:19:07;;;;;;;26.75;12.05;;;;;;;-143.21;48.16;71140.28;5049219;28;20717;-79
2023/06/07 10:21:37;;;;;;;19.95;8.10;;;;;;;-143.21;48.23;71136.31;5049332;28;20202;-79
2023/06/07 10:24:09;;;;;;;172.93;58.38;;;;;;;-143.21;48.10;71112.53;5049496;28;20252;-79
2023/06/07 10:26:45;;;;;;;44.38;19.30;;;;;;;-143.21;48.40;71108.56;5065551;28;20202;-79
2023/06/07 10:29:18;;;;;;;51.50;17.52;;;;;;;-143.21;47.60;71092.72;5069545;28;20197;-79
2023/06/07 10:31:52;;;;;;;52.72;18.63;;;;;;;-143.21;47.18;71092.72;5056314;28;20225;-82
2023/06/07 10:34:21;;;;;;;24.42;9.27;;;;;;;-143.21;46.60;71088.75;5046537;28;20707;-79
2023/06/07 10:36:50;;;;;;;10.77;5.63;;;;;;;-143.21;46.81;71078.84;5049350;28;20612;-80
2023/06/07 10:39:17;;;;;;;13.90;6.10;;;;;;;-143.21;47.44;71070.91;5049960;28;20198;-79
2023/06/07 10:41:44;;;;;;;9.32;4.50;;;;;;;-143.21;47.07;71066.94;5053571;28;20229;-81
2023/06/07 10:44:12;;;;;;;10.82;4.35;;;;;;;-143.21;46.97;71051.09;5049997;28;20194;-79
2023/06/07 10:46:39;;;;;;;9.02;4.40;;;;;;;-143.21;46.40;71037.22;5065394;28;20302;-79
2023/06/07 10:49:33;;;;;;;8.82;4.45;;;;;;;-143.21;46.59;71031.25;5054231;28;20267;-79
2023/06/07 10:52:05;;;;;;;7.22;4.40;;;;;;;-143.21;46.86;71019.38;5048551;28;20205;-78
2023/06/07 10:54:33;;;;;;;7.07;4.18;;;;;;;-143.21;45.85;71007.47;5049915;28;20206;-81
2023/06/07 10:57:02;;;;;;;9.20;4.13;;;;;;;-143.21;45.50;70995.56;5049313;28;20209;-79
2023/06/07 10:59:30;;;;;;;11.63;4.55;;;;;;;-143.21;45.10;70981.69;5049238;28;20198;-79
2023/06/07 11:02:21;;;;;;;7.18;4.25;;;;;;;-143.21;45.79;70973.78;5057467;28;20232;-80
2023/06/07 11:04:52;;;;;;;8.13;4.10;;;;;;;-143.21;45.09;70961.88;5049731;28;20286;-80
2023/06/07 11:07:22;;;;;;;5.60;4.03;;;;;;;-143.21;45.45;70951.97;5049360;28;20206;-79
2023/06/07 11:09:50;;;;;;;6.68;4.05;;;;;;;-143.21;44.60;70932.13;5049286;28;20259;-79
2023/06/07 11:12:59;;;;;;;8.73;4.30;;;;;;;-143.21;44.13;70922.22;5062638;28;20205;-79
2023/06/07 11:15:30;;;;;;;4.75;3.67;;;;;;;-143.21;43.70;70916.28;5030847;28;20668;-80
2023/06/07 11:17:59;;;;;;;6.22;4.30;;;;;;;-143.21;44.56;70930.16;5029898;28;20190;-79
2023/06/07 11:20:49;;;;;;;7.30;3.83;;;;;;;-143.21;45.00;70949.97;5045907;28;20282;-80